Time;durP1;ratioP1;P1;durP2;ratioP2;P2;SDS_P1;SDS_P2;PMS_P1;PMS_P2;Temp;Humidity;BMP_temperature;BMP_pressure;BME280_temperature;BME280_humidity;BME280_pressure;Samples;Min_cycle;Max_cycle;Signal;HPM_P1;HPM_P2
2023/08/11 00:02:20;;;;;;;5.00;3.83;;;;;;;;;;5135652;27;20055;-62
2023/08/11 00:04:47;;;;;;;7.55;3.38;;;;;;;;;;5135897;27;20054;-61
2023/08/11 00:07:15;;;;;;;4.47;3.13;;;;;;;;;;5135973;27;20055;-61
2023/08/11 00:09:41;;;;;;;6.47;3.55;;;;;;;;;;5135836;27;20067;-61
2023/08/11 00:12:08;;;;;;;5.63;3.22;;;;;;;;;;5135893;27;20055;-61
2023/08/11 00:14:35;;;;;;;4.80;3.38;;;;;;;;;;5135933;27;20399;-61
2023/08/11 00:17:05;;;;;;;5.90;3.17;;;;;;;;;;5135324;27;20051;-61
2023/08/11 00:19:34;;;;;;;7.07;3.30;;;;;;;;;;5135709;27;20495;-61
2023/08/11 00:22:01;;;;;;;4.68;3.30;;;;;;;;;;5135826;27;20071;-61
2023/08/11 00:24:28;;;;;;;5.28;3.28;;;;;;;;;;5135516;27;20476;-62
2023/08/11 00:26:56;;;;;;;6.13;3.30;;;;;;;;;;5135121;27;20054;-60
2023/08/11 00:29:22;;;;;;;4.15;3.30;;;;;;;;;;5135496;27;20128;-60
2023/08/11 00:31:49;;;;;;;5.95;3.20;;;;;;;;;;5135607;27;20062;-62
2023/08/11 00:34:19;;;;;;;5.78;3.10;;;;;;;;;;5134905;27;20459;-62
2023/08/11 00:36:46;;;;;;;7.05;4.00;;;;;;;;;;5135316;27;20051;-62
2023/08/11 00:39:13;;;;;;;5.53;3.10;;;;;;;;;;5135169;27;20051;-62
2023/08/11 00:41:40;;;;;;;4.93;3.50;;;;;;;;;;5135185;27;20055;-62
2023/08/11 00:44:07;;;;;;;4.05;2.75;;;;;;;;;;5134186;27;20395;-62
2023/08/11 00:46:35;;;;;;;5.15;3.25;;;;;;;;;;5134747;27;20062;-62
2023/08/11 00:49:02;;;;;;;6.80;3.95;;;;;;;;;;5134707;27;20051;-62
2023/08/11 00:51:34;;;;;;;6.30;3.53;;;;;;;;;;5135035;27;20051;-62
2023/08/11 00:54:03;;;;;;;4.57;3.20;;;;;;;;;;5134912;27;20043;-62
2023/08/11 00:56:30;;;;;;;4.75;2.90;;;;;;;;;;5135018;27;20058;-62
2023/08/11 00:59:01;;;;;;;4.32;3.13;;;;;;;;;;5134830;27;20043;-62
2023/08/11 01:01:28;;;;;;;;;;;;;;;;;;5135014;27;20400;-62
2023/08/11 01:03:54;;;;;;;6.25;3.60;;;;;;;;;;5134723;27;19919;-62
2023/08/11 01:06:24;;;;;;;5.57;3.60;;;;;;;;;;5134848;27;20047;-62
2023/08/11 01:08:56;;;;;;;5.85;3.40;;;;;;;;;;5134620;27;20047;-62
2023/08/11 01:11:29;;;;;;;5.80;3.85;;;;;;;;;;5134289;27;20385;-62
2023/08/11 01:14:02;;;;;;;6.03;3.55;;;;;;;;;;5134768;27;20055;-62
2023/08/11 01:16:30;;;;;;;5.22;3.50;;;;;;;;;;5134553;27;20051;-62
2023/08/11 01:18:57;;;;;;;7.97;4.20;;;;;;;;;;5134442;27;20503;-62
2023/08/11 01:21:25;;;;;;;8.20;3.78;;;;;;;;;;5134646;27;20053;-62
2023/08/11 01:23:54;;;;;;;5.28;3.45;;;;;;;;;;5134296;27;20476;-62
2023/08/11 01:26:21;;;;;;;5.10;3.72;;;;;;;;;;5134323;27;20408;-62
2023/08/11 01:28:48;;;;;;;9.27;4.68;;;;;;;;;;5115802;27;20043;-62
2023/08/11 01:31:18;;;;;;;4.35;3.40;;;;;;;;;;5113090;28;20078;-62
2023/08/11 01:33:44;;;;;;;7.05;4.57;;;;;;;;;;5112764;28;20519;-62
2023/08/11 01:36:13;;;;;;;6.13;3.95;;;;;;;;;;5104178;28;20473;-62
2023/08/11 01:38:40;;;;;;;4.32;3.38;;;;;;;;;;5112624;28;20055;-62
2023/08/11 01:41:11;;;;;;;5.45;3.50;;;;;;;;;;5112846;28;20062;-62
2023/08/11 01:43:39;;;;;;;6.25;3.95;;;;;;;;;;5113218;28;20396;-62
2023/08/11 01:46:08;;;;;;;4.10;3.70;;;;;;;;;;5105626;28;20055;-62
2023/08/11 01:48:35;;;;;;;5.47;3.55;;;;;;;;;;5100456;28;20511;-62
2023/08/11 01:51:02;;;;;;;5.10;3.72;;;;;;;;;;5112877;28;20051;-62
2023/08/11 01:53:29;;;;;;;4.70;3.22;;;;;;;;;;5113171;28;20087;-62
2023/08/11 01:55:56;;;;;;;5.82;3.70;;;;;;;;;;5113327;28;20059;-62
2023/08/11 01:58:24;;;;;;;6.57;3.90;;;;;;;;;;5113042;28;20370;-62
2023/08/11 02:00:51;;;;;;;7.85;4.15;;;;;;;;;;5113118;28;20484;-62
2023/08/11 02:03:18;;;;;;;5.00;3.80;;;;;;;;;;5112810;28;20378;-62
2023/08/11 02:05:45;;;;;;;4.97;4.00;;;;;;;;;;5112956;28;20400;-62
2023/08/11 02:08:17;;;;;;;6.05;4.22;;;;;;;;;;5112368;28;20054;-62
2023/08/11 02:10:44;;;;;;;7.47;3.90;;;;;;;;;;5113263;28;20063;-62
2023/08/11 02:13:11;;;;;;;7.03;3.88;;;;;;;;;;5112687;28;20048;-62
2023/08/11 02:15:39;;;;;;;6.53;4.45;;;;;;;;;;5112601;28;20077;-62
2023/08/11 02:18:06;;;;;;;4.72;3.80;;;;;;;;;;5112707;28;20056;-62
2023/08/11 02:20:33;;;;;;;6.50;4.40;;;;;;;;;;5113167;28;20062;-62
2023/08/11 02:22:59;;;;;;;5.78;4.05;;;;;;;;;;5112851;28;20051;-62
2023/08/11 02:25:26;;;;;;;4.65;3.63;;;;;;;;;;5112873;28;20052;-62
2023/08/11 02:27:53;;;;;;;8.60;3.75;;;;;;;;;;5112673;28;20051;-62
2023/08/11 02:30:21;;;;;;;5.50;3.60;;;;;;;;;;5113074;28;20047;-62
2023/08/11 02:32:50;;;;;;;5.00;3.55;;;;;;;;;;5112851;28;20480;-62
2023/08/11 02:35:18;;;;;;;5.93;3.23;;;;;;;;;;5092523;28;20055;-62
2023/08/11 02:37:44;;;;;;;5.90;3.35;;;;;;;;;;5104538;28;20055;-62
2023/08/11 02:40:11;;;;;;;6.30;3.65;;;;;;;;;;5114548;28;20476;-62
2023/08/11 02:42:39;;;;;;;8.43;4.32;;;;;;;;;;5116796;28;20063;-62
2023/08/11 02:45:09;;;;;;;6.78;3.60;;;;;;;;;;5117068;28;20050;-62
2023/08/11 02:47:36;;;;;;;6.93;4.05;;;;;;;;;;5116372;28;20047;-62
2023/08/11 02:50:05;;;;;;;6.35;4.80;;;;;;;;;;5117123;28;20473;-62
2023/08/11 02:52:32;;;;;;;4.93;3.35;;;;;;;;;;5116407;28;20051;-62
2023/08/11 02:54:59;;;;;;;5.82;4.85;;;;;;;;;;5116671;28;20395;-62
2023/08/11 02:57:25;;;;;;;4.47;3.58;;;;;;;;;;5116253;28;20058;-62
2023/08/11 02:59:52;;;;;;;6.05;4.25;;;;;;;;;;5116530;28;20055;-62
2023/08/11 03:02:19;;;;;;;6.72;3.75;;;;;;;;;;5116284;28;20056;-62
2023/08/11 03:04:47;;;;;;;5.97;4.43;;;;;;;;;;5116599;28;20059;-62
2023/08/11 03:07:16;;;;;;;6.88;3.53;;;;;;;;;;5116409;28;20052;-62
2023/08/11 03:09:43;;;;;;;7.32;3.95;;;;;;;;;;5116333;28;20058;-62
2023/08/11 03:12:10;;;;;;;6.68;3.50;;;;;;;;;;5116643;28;20058;-62
2023/08/11 03:14:37;;;;;;;8.20;4.05;;;;;;;;;;5116488;28;20432;-62
2023/08/11 03:17:05;;;;;;;5.20;4.10;;;;;;;;;;5116264;28;20062;-62
2023/08/11 03:19:32;;;;;;;4.78;3.50;;;;;;;;;;5115926;28;20055;-62
2023/08/11 03:21:59;;;;;;;5.65;3.90;;;;;;;;;;5116060;28;20055;-62
2023/08/11 03:24:27;;;;;;;7.10;4.25;;;;;;;;;;5115826;28;20051;-62
2023/08/11 03:26:54;;;;;;;7.15;4.15;;;;;;;;;;5116042;28;20051;-62
2023/08/11 03:29:20;;;;;;;5.85;3.63;;;;;;;;;;5116020;28;20055;-62
2023/08/11 03:31:47;;;;;;;5.60;3.92;;;;;;;;;;5116143;28;20374;-62
2023/08/11 03:34:14;;;;;;;5.20;3.70;;;;;;;;;;5126211;28;20054;-62
2023/08/11 03:36:41;;;;;;;11.70;4.55;;;;;;;;;;5135042;28;20051;-62
2023/08/11 03:39:08;;;;;;;4.43;3.60;;;;;;;;;;5135175;28;20498;-62
2023/08/11 03:41:36;;;;;;;6.25;4.43;;;;;;;;;;5135342;28;20047;-61
2023/08/11 03:44:03;;;;;;;4.80;3.58;;;;;;;;;;5135020;28;20054;-62
2023/08/11 03:46:30;;;;;;;4.78;3.20;;;;;;;;;;5134557;28;20051;-62
2023/08/11 03:48:57;;;;;;;5.22;3.35;;;;;;;;;;5135127;28;20047;-62
2023/08/11 03:51:24;;;;;;;6.15;3.80;;;;;;;;;;5134371;27;20058;-62
2023/08/11 03:53:51;;;;;;;6.97;4.38;;;;;;;;;;5134722;28;20051;-62
2023/08/11 03:56:18;;;;;;;5.20;3.60;;;;;;;;;;5135080;28;20043;-62
2023/08/11 03:58:46;;;;;;;6.20;3.67;;;;;;;;;;5134924;28;20100;-61
2023/08/11 04:01:13;;;;;;;7.50;3.95;;;;;;;;;;5134489;28;20074;-62
2023/08/11 04:03:40;;;;;;;6.53;4.20;;;;;;;;;;5134413;28;20061;-62
2023/08/11 04:06:06;;;;;;;4.95;3.60;;;;;;;;;;5134041;28;20047;-62
2023/08/11 04:08:33;;;;;;;7.30;3.70;;;;;;;;;;5134444;28;20047;-61
2023/08/11 04:11:00;;;;;;;6.00;3.35;;;;;;;;;;5134936;28;20058;-62
2023/08/11 04:13:27;;;;;;;8.10;3.60;;;;;;;;;;5134624;28;20398;-61
2023/08/11 04:15:55;;;;;;;7.88;3.35;;;;;;;;;;5134632;28;20051;-62
2023/08/11 04:18:22;;;;;;;9.32;3.78;;;;;;;;;;5134233;28;20051;-62
2023/08/11 04:20:48;;;;;;;6.97;3.50;;;;;;;;;;5134833;28;20051;-62
2023/08/11 04:23:15;;;;;;;5.70;3.70;;;;;;;;;;5134231;28;20387;-62
2023/08/11 04:25:42;;;;;;;4.70;3.55;;;;;;;;;;5134063;28;20047;-62
2023/08/11 04:28:09;;;;;;;4.40;3.55;;;;;;;;;;5134442;28;20479;-62
2023/08/11 04:30:37;;;;;;;4.40;3.22;;;;;;;;;;5134516;28;20051;-62
2023/08/11 04:33:06;;;;;;;3.73;2.90;;;;;;;;;;5090364;27;1195825;-62
2023/08/11 04:35:33;;;;;;;5.97;3.00;;;;;;;;;;5114708;28;20499;-61
2023/08/11 04:38:00;;;;;;;5.22;3.13;;;;;;;;;;5113894;28;20142;-62
2023/08/11 04:40:26;;;;;;;5.93;3.40;;;;;;;;;;5114281;28;20063;-62
2023/08/11 04:42:53;;;;;;;6.15;3.58;;;;;;;;;;5113899;28;20058;-62
2023/08/11 04:45:20;;;;;;;6.90;3.63;;;;;;;;;;5106043;28;20051;-62
2023/08/11 04:47:47;;;;;;;6.85;3.60;;;;;;;;;;5114091;28;20071;-62
2023/08/11 04:50:15;;;;;;;6.00;3.63;;;;;;;;;;5113641;28;20078;-61
2023/08/11 04:52:42;;;;;;;8.25;3.80;;;;;;;;;;5114182;28;20063;-61
2023/08/11 04:55:09;;;;;;;8.70;4.40;;;;;;;;;;5114176;28;20499;-61
2023/08/11 04:57:36;;;;;;;5.22;4.45;;;;;;;;;;5114061;28;20389;-61
2023/08/11 05:00:03;;;;;;;6.47;4.57;;;;;;;;;;5113725;28;20048;-61
2023/08/11 05:02:30;;;;;;;6.60;4.20;;;;;;;;;;5112398;28;20153;-61
2023/08/11 05:04:57;;;;;;;5.97;4.25;;;;;;;;;;5113609;28;20043;-62
2023/08/11 05:07:25;;;;;;;5.68;4.45;;;;;;;;;;5113656;28;20052;-61
2023/08/11 05:09:51;;;;;;;7.25;4.55;;;;;;;;;;5113550;28;20396;-61
2023/08/11 05:12:18;;;;;;;6.72;4.75;;;;;;;;;;5113245;28;20055;-62
2023/08/11 05:14:47;;;;;;;6.45;4.57;;;;;;;;;;5113594;28;20056;-62
2023/08/11 05:17:13;;;;;;;8.57;4.95;;;;;;;;;;5113414;28;20062;-62
2023/08/11 05:19:40;;;;;;;5.93;4.50;;;;;;;;;;5113460;28;20062;-62
2023/08/11 05:22:07;;;;;;;7.25;5.95;;;;;;;;;;5113626;28;20404;-62
2023/08/11 05:24:35;;;;;;;10.75;4.75;;;;;;;;;;5113071;28;20051;-61
2023/08/11 05:27:03;;;;;;;7.43;5.03;;;;;;;;;;5112896;28;20067;-61
2023/08/11 05:29:30;;;;;;;8.88;5.68;;;;;;;;;;5113414;28;20134;-61
2023/08/11 05:31:57;;;;;;;7.97;4.63;;;;;;;;;;5113375;28;20523;-62
2023/08/11 05:34:23;;;;;;;7.43;4.82;;;;;;;;;;5125497;27;20055;-61
2023/08/11 05:36:50;;;;;;;5.93;4.47;;;;;;;;;;5133635;27;20043;-61
2023/08/11 05:39:17;;;;;;;13.10;4.88;;;;;;;;;;5133671;27;20404;-61
2023/08/11 05:41:45;;;;;;;7.47;4.22;;;;;;;;;;5133413;27;20066;-61
2023/08/11 05:44:12;;;;;;;10.57;5.28;;;;;;;;;;5133819;27;20472;-61
2023/08/11 05:46:39;;;;;;;7.18;4.97;;;;;;;;;;5133695;27;20047;-61
2023/08/11 05:49:05;;;;;;;6.68;4.53;;;;;;;;;;5133540;27;20051;-62
2023/08/11 05:51:32;;;;;;;8.32;5.50;;;;;;;;;;5133192;27;20494;-62
2023/08/11 05:53:59;;;;;;;11.23;5.45;;;;;;;;;;5132902;27;20074;-62
2023/08/11 05:56:26;;;;;;;7.95;4.55;;;;;;;;;;5133702;27;20071;-62
2023/08/11 05:58:54;;;;;;;14.40;5.38;;;;;;;;;;5133282;27;20058;-62
2023/08/11 06:01:21;;;;;;;18.55;5.10;;;;;;;;;;5133572;27;20050;-62
2023/08/11 06:03:47;;;;;;;11.63;4.53;;;;;;;;;;5133391;27;20486;-62
2023/08/11 06:06:14;;;;;;;7.18;4.68;;;;;;;;;;5133276;27;20399;-61
2023/08/11 06:08:41;;;;;;;9.75;4.50;;;;;;;;;;5132931;27;20058;-62
2023/08/11 06:11:08;;;;;;;27.65;5.50;;;;;;;;;;5133040;27;20058;-62
2023/08/11 06:13:35;;;;;;;6.22;4.20;;;;;;;;;;5133297;27;20475;-62
2023/08/11 06:16:03;;;;;;;9.88;4.75;;;;;;;;;;5133543;27;20054;-62
2023/08/11 06:18:30;;;;;;;7.00;4.45;;;;;;;;;;5133093;27;20400;-61
2023/08/11 06:20:57;;;;;;;5.78;4.18;;;;;;;;;;5132899;27;20058;-61
2023/08/11 06:23:24;;;;;;;7.00;4.03;;;;;;;;;;5132770;27;20050;-62
2023/08/11 06:25:50;;;;;;;6.45;3.60;;;;;;;;;;5132837;28;20054;-61
2023/08/11 06:28:17;;;;;;;6.60;3.70;;;;;;;;;;5132785;28;20476;-61
2023/08/11 06:30:44;;;;;;;5.43;3.95;;;;;;;;;;5132860;28;20047;-61
2023/08/11 06:33:12;;;;;;;8.68;3.83;;;;;;;;;;5132904;28;20054;-61
2023/08/11 06:35:39;;;;;;;6.00;4.57;;;;;;;;;;5133042;28;20070;-61
2023/08/11 06:38:06;;;;;;;7.93;4.40;;;;;;;;;;5132567;28;20055;-61
2023/08/11 06:40:33;;;;;;;6.15;4.00;;;;;;;;;;5133383;28;20059;-61
2023/08/11 06:43:00;;;;;;;5.43;4.05;;;;;;;;;;5133029;28;20047;-61
2023/08/11 06:45:26;;;;;;;6.55;4.32;;;;;;;;;;5132778;28;20055;-61
2023/08/11 06:47:53;;;;;;;24.02;5.90;;;;;;;;;;5132477;28;20074;-61
2023/08/11 06:50:21;;;;;;;6.32;4.40;;;;;;;;;;5132710;28;20047;-61
2023/08/11 06:52:48;;;;;;;6.32;4.63;;;;;;;;;;5132717;28;20055;-61
2023/08/11 06:55:15;;;;;;;7.07;4.70;;;;;;;;;;5132915;28;20511;-61
2023/08/11 06:57:42;;;;;;;6.55;4.75;;;;;;;;;;5132782;28;20055;-61
2023/08/11 07:00:09;;;;;;;11.20;5.22;;;;;;;;;;5132902;28;20365;-61
2023/08/11 07:02:36;;;;;;;10.73;4.90;;;;;;;;;;5132815;28;20054;-61
2023/08/11 07:05:03;;;;;;;6.00;4.43;;;;;;;;;;5132963;28;20427;-61
2023/08/11 07:07:31;;;;;;;13.95;4.22;;;;;;;;;;5132460;28;20047;-61
2023/08/11 07:09:58;;;;;;;37.65;6.43;;;;;;;;;;5133103;28;20051;-61
2023/08/11 07:12:25;;;;;;;9.77;4.55;;;;;;;;;;5132872;28;20057;-61
2023/08/11 07:14:52;;;;;;;7.30;3.33;;;;;;;;;;5115595;28;20052;-61
2023/08/11 07:17:19;;;;;;;6.65;3.15;;;;;;;;;;5112216;28;20416;-61
2023/08/11 07:19:46;;;;;;;8.00;3.60;;;;;;;;;;5112134;28;20059;-61
2023/08/11 07:22:12;;;;;;;5.70;3.40;;;;;;;;;;5111831;28;20062;-61
2023/08/11 07:24:41;;;;;;;6.22;3.25;;;;;;;;;;5112499;28;20470;-61
2023/08/11 07:27:07;;;;;;;5.13;2.78;;;;;;;;;;5115378;28;20062;-61
2023/08/11 07:29:34;;;;;;;5.20;2.70;;;;;;;;;;5115397;28;20492;-60
2023/08/11 07:32:01;;;;;;;4.93;2.90;;;;;;;;;;5115789;28;20480;-61
2023/08/11 07:34:28;;;;;;;4.30;2.70;;;;;;;;;;5120450;27;20419;-61
2023/08/11 07:36:55;;;;;;;7.05;2.65;;;;;;;;;;5136211;27;20054;-61
2023/08/11 07:39:22;;;;;;;3.53;2.55;;;;;;;;;;5136275;27;20051;-61
2023/08/11 07:41:50;;;;;;;5.50;2.53;;;;;;;;;;5136651;27;20487;-60
2023/08/11 07:44:17;;;;;;;6.72;2.55;;;;;;;;;;5136083;27;20051;-61
2023/08/11 07:46:44;;;;;;;8.45;2.50;;;;;;;;;;5135813;27;20054;-61
2023/08/11 07:49:11;;;;;;;5.85;2.40;;;;;;;;;;5136123;27;20066;-61
2023/08/11 07:51:39;;;;;;;5.65;2.38;;;;;;;;;;5135809;27;20058;-61
2023/08/11 07:54:06;;;;;;;4.90;2.42;;;;;;;;;;5135694;27;20086;-62
2023/08/11 07:56:33;;;;;;;3.88;1.65;;;;;;;;;;5136062;27;20047;-62
2023/08/11 07:59:01;;;;;;;3.30;1.73;;;;;;;;;;5135998;27;20051;-62
2023/08/11 08:01:28;;;;;;;2.13;1.55;;;;;;;;;;5135808;27;20391;-62
2023/08/11 08:03:55;;;;;;;4.10;1.85;;;;;;;;;;5135798;27;20395;-62
2023/08/11 08:06:22;;;;;;;3.70;2.05;;;;;;;;;;5135878;27;20058;-61
2023/08/11 08:08:49;;;;;;;3.50;1.88;;;;;;;;;;5135885;27;20073;-61
2023/08/11 08:11:15;;;;;;;3.78;1.80;;;;;;;;;;5135520;27;20108;-61
2023/08/11 08:13:42;;;;;;;3.50;1.80;;;;;;;;;;5135602;27;20058;-60
2023/08/11 08:16:10;;;;;;;2.40;1.40;;;;;;;;;;5135997;27;20051;-60
2023/08/11 08:18:37;;;;;;;3.50;1.73;;;;;;;;;;5135582;27;20413;-60
2023/08/11 08:21:04;;;;;;;2.35;1.65;;;;;;;;;;5135604;27;20058;-61
2023/08/11 08:23:31;;;;;;;3.72;1.67;;;;;;;;;;5135244;27;20055;-61
2023/08/11 08:25:58;;;;;;;3.10;1.90;;;;;;;;;;5135810;27;20054;-60
2023/08/11 08:28:24;;;;;;;3.75;2.25;;;;;;;;;;5135640;27;20395;-61
2023/08/11 08:30:51;;;;;;;3.55;1.52;;;;;;;;;;5135297;27;20047;-61
2023/08/11 08:33:19;;;;;;;3.70;1.85;;;;;;;;;;5134980;27;20055;-62
2023/08/11 08:35:46;;;;;;;2.65;1.50;;;;;;;;;;5135107;27;20055;-61
2023/08/11 08:38:13;;;;;;;3.75;1.80;;;;;;;;;;5133717;27;20058;-61
2023/08/11 08:40:40;;;;;;;5.82;1.92;;;;;;;;;;5135172;27;20047;-61
2023/08/11 08:43:08;;;;;;;16.03;3.23;;;;;;;;;;5135112;27;20055;-61
2023/08/11 08:45:36;;;;;;;3.22;2.20;;;;;;;;;;5135226;27;20863;-61
2023/08/11 08:48:06;;;;;;;3.97;1.90;;;;;;;;;;5134890;27;20051;-61
2023/08/11 08:50:34;;;;;;;2.40;1.65;;;;;;;;;;5135162;27;20058;-61
2023/08/11 08:53:01;;;;;;;4.70;2.28;;;;;;;;;;5134592;27;20137;-60
2023/08/11 08:55:28;;;;;;;3.53;1.67;;;;;;;;;;5134851;27;20047;-61
2023/08/11 08:57:55;;;;;;;3.70;1.77;;;;;;;;;;5134917;27;20062;-61
2023/08/11 09:00:23;;;;;;;3.85;1.90;;;;;;;;;;5134849;27;20054;-61
2023/08/11 09:02:50;;;;;;;5.83;1.97;;;;;;;;;;5134282;27;20055;-61
2023/08/11 09:05:17;;;;;;;3.50;1.90;;;;;;;;;;5134795;27;20058;-61
2023/08/11 09:07:46;;;;;;;3.40;1.83;;;;;;;;;;5134583;27;20058;-61
2023/08/11 09:10:12;;;;;;;3.53;1.98;;;;;;;;;;5134820;27;20046;-61
2023/08/11 09:12:39;;;;;;;3.78;1.70;;;;;;;;;;5134277;27;20051;-61
2023/08/11 09:15:07;;;;;;;2.90;1.92;;;;;;;;;;5134458;27;20051;-61
2023/08/11 09:17:35;;;;;;;2.90;2.03;;;;;;;;;;5133971;27;20047;-61
2023/08/11 09:20:03;;;;;;;2.50;1.60;;;;;;;;;;5134531;27;20487;-64
2023/08/11 09:22:32;;;;;;;3.35;1.73;;;;;;;;;;5134210;27;20055;-64
2023/08/11 09:25:03;;;;;;;3.63;1.95;;;;;;;;;;5134433;27;20379;-63
2023/08/11 09:27:31;;;;;;;3.70;2.10;;;;;;;;;;5133619;27;20054;-64
2023/08/11 09:29:58;;;;;;;4.28;1.77;;;;;;;;;;5134464;27;20047;-64
2023/08/11 09:32:25;;;;;;;2.20;1.60;;;;;;;;;;5133871;27;20396;-64
2023/08/11 09:34:51;;;;;;;2.88;2.10;;;;;;;;;;5133553;27;20058;-64
2023/08/11 09:37:18;;;;;;;3.03;2.00;;;;;;;;;;5133551;27;20049;-63
2023/08/11 09:39:45;;;;;;;3.30;1.77;;;;;;;;;;5134114;27;20055;-64
2023/08/11 09:42:14;;;;;;;2.93;1.80;;;;;;;;;;5134214;27;20043;-63
2023/08/11 09:44:43;;;;;;;2.75;2.00;;;;;;;;;;5134369;27;20479;-61
2023/08/11 09:47:11;;;;;;;5.60;2.08;;;;;;;;;;5133540;27;20051;-61
2023/08/11 09:49:37;;;;;;;4.28;2.17;;;;;;;;;;5133480;27;20372;-61
2023/08/11 09:52:05;;;;;;;3.43;1.80;;;;;;;;;;5133419;27;20070;-61
2023/08/11 09:54:32;;;;;;;3.60;1.73;;;;;;;;;;5133959;27;20481;-62
2023/08/11 09:56:59;;;;;;;;;;;;;;;;;;5133880;27;20411;-62
2023/08/11 09:59:27;;;;;;;3.55;1.98;;;;;;;;;;5133448;27;19942;-62
2023/08/11 10:01:56;;;;;;;2.58;1.88;;;;;;;;;;5133851;27;20055;-62
2023/08/11 10:04:25;;;;;;;2.30;1.85;;;;;;;;;;5133774;27;20051;-60
2023/08/11 10:06:54;;;;;;;3.38;1.77;;;;;;;;;;5133212;27;20051;-61
2023/08/11 10:09:23;;;;;;;3.15;1.83;;;;;;;;;;5133588;27;20051;-61
2023/08/11 10:11:50;;;;;;;2.47;1.90;;;;;;;;;;5133253;27;20047;-61
2023/08/11 10:14:17;;;;;;;;;;;;;;;;;;5134177;27;20399;-61
2023/08/11 10:16:46;;;;;;;3.17;1.88;;;;;;;;;;5133585;27;19927;-63
2023/08/11 10:19:13;;;;;;;1.90;1.60;;;;;;;;;;5133525;27;20051;-63
2023/08/11 10:21:40;;;;;;;2.63;1.75;;;;;;;;;;5133126;27;20055;-63
2023/08/11 10:24:07;;;;;;;2.85;1.77;;;;;;;;;;5133415;27;20058;-63
2023/08/11 10:26:34;;;;;;;4.80;1.98;;;;;;;;;;5133711;27;20051;-63
2023/08/11 10:29:01;;;;;;;2.27;1.70;;;;;;;;;;5133273;28;20384;-63
2023/08/11 10:31:31;;;;;;;2.53;1.80;;;;;;;;;;5133615;28;20051;-63
2023/08/11 10:34:05;;;;;;;3.33;1.67;;;;;;;;;;5132844;28;21015;-63
2023/08/11 10:36:32;;;;;;;2.80;1.92;;;;;;;;;;5132801;28;20047;-63
2023/08/11 10:38:59;;;;;;;3.67;1.73;;;;;;;;;;5133044;28;20047;-64
2023/08/11 10:41:26;;;;;;;3.13;1.77;;;;;;;;;;5132825;28;20066;-62
2023/08/11 10:43:54;;;;;;;3.45;2.05;;;;;;;;;;5133492;28;20471;-63
2023/08/11 10:46:22;;;;;;;3.42;1.70;;;;;;;;;;5133464;28;20408;-63
2023/08/11 10:48:50;;;;;;;3.25;1.88;;;;;;;;;;5132897;28;20043;-62
2023/08/11 10:51:25;;;;;;;2.90;1.85;;;;;;;;;;5133152;28;20407;-63
2023/08/11 10:53:54;;;;;;;2.65;1.83;;;;;;;;;;5132999;28;20047;-63
2023/08/11 10:56:27;;;;;;;2.10;1.70;;;;;;;;;;5134005;28;20062;-63
2023/08/11 10:59:04;;;;;;;3.20;2.10;;;;;;;;;;5133097;28;20051;-63
2023/08/11 11:01:31;;;;;;;2.80;1.80;;;;;;;;;;5135860;27;20062;-63
2023/08/11 11:03:58;;;;;;;3.08;1.60;;;;;;;;;;5137100;27;20047;-63
2023/08/11 11:06:26;;;;;;;2.13;1.75;;;;;;;;;;5136606;27;20047;-63
2023/08/11 11:08:53;;;;;;;2.65;1.95;;;;;;;;;;5136619;27;20089;-63
2023/08/11 11:11:20;;;;;;;2.33;1.85;;;;;;;;;;5137012;27;20063;-63
2023/08/11 11:13:47;;;;;;;4.57;2.00;;;;;;;;;;5137040;27;20483;-61
2023/08/11 11:16:13;;;;;;;2.95;1.73;;;;;;;;;;5136457;27;20061;-60
2023/08/11 11:18:42;;;;;;;3.85;1.95;;;;;;;;;;5136629;27;20043;-61
2023/08/11 11:21:09;;;;;;;2.40;1.63;;;;;;;;;;5136952;27;20059;-60
2023/08/11 11:23:37;;;;;;;2.20;2.00;;;;;;;;;;5136808;27;20059;-60
2023/08/11 11:26:04;;;;;;;2.78;1.95;;;;;;;;;;5136331;27;20407;-61
2023/08/11 11:28:31;;;;;;;2.95;2.00;;;;;;;;;;5136364;27;20051;-60
2023/08/11 11:30:58;;;;;;;2.67;1.80;;;;;;;;;;5136572;27;20411;-60
2023/08/11 11:33:25;;;;;;;2.22;1.80;;;;;;;;;;5135915;27;20055;-61
2023/08/11 11:35:52;;;;;;;2.53;2.00;;;;;;;;;;5136012;27;20051;-61
2023/08/11 11:38:18;;;;;;;4.63;2.05;;;;;;;;;;5135761;27;20043;-60
2023/08/11 11:40:49;;;;;;;2.78;1.70;;;;;;;;;;5135951;27;20415;-60
2023/08/11 11:43:16;;;;;;;3.70;1.88;;;;;;;;;;5136284;27;20058;-60
2023/08/11 11:45:42;;;;;;;2.30;1.65;;;;;;;;;;5136439;27;20047;-61
2023/08/11 11:48:09;;;;;;;2.42;2.05;;;;;;;;;;5135936;27;20393;-60
2023/08/11 11:50:36;;;;;;;2.50;1.92;;;;;;;;;;5135795;27;20070;-60
2023/08/11 11:53:03;;;;;;;4.15;2.00;;;;;;;;;;5135633;27;20085;-60
2023/08/11 11:55:30;;;;;;;2.30;1.80;;;;;;;;;;5135913;27;20051;-60
2023/08/11 11:57:58;;;;;;;2.88;2.13;;;;;;;;;;5135740;27;20066;-61
2023/08/11 12:00:25;;;;;;;2.90;1.70;;;;;;;;;;5135669;27;20058;-60
2023/08/11 12:02:53;;;;;;;3.13;1.77;;;;;;;;;;5135886;27;20055;-61
2023/08/11 12:05:21;;;;;;;3.20;1.77;;;;;;;;;;5135791;27;20074;-60
2023/08/11 12:07:48;;;;;;;4.22;1.95;;;;;;;;;;5135799;27;20402;-61
2023/08/11 12:10:15;;;;;;;2.75;1.83;;;;;;;;;;5135481;27;20051;-60
2023/08/11 12:12:42;;;;;;;;;;;;;;;;;;5135584;27;20050;-61
2023/08/11 12:15:10;;;;;;;3.22;2.00;;;;;;;;;;5135729;27;19920;-61
2023/08/11 12:17:37;;;;;;;3.28;2.00;;;;;;;;;;5135295;27;20055;-60
2023/08/11 12:20:04;;;;;;;4.00;1.95;;;;;;;;;;5135681;27;20047;-60
2023/08/11 12:22:31;;;;;;;;;;;;;;;;;;5136116;27;20051;-60
2023/08/11 12:24:58;;;;;;;2.80;1.90;;;;;;;;;;5135893;27;19920;-60
2023/08/11 12:27:25;;;;;;;3.22;1.83;;;;;;;;;;5135304;27;20051;-60
2023/08/11 12:29:52;;;;;;;2.95;1.80;;;;;;;;;;5135495;27;20047;-61
2023/08/11 12:32:20;;;;;;;2.00;1.63;;;;;;;;;;5134940;27;20507;-61
2023/08/11 12:34:46;;;;;;;2.08;1.80;;;;;;;;;;5134537;27;20511;-60
2023/08/11 12:37:14;;;;;;;2.53;1.95;;;;;;;;;;5135004;27;20429;-60
2023/08/11 12:39:41;;;;;;;3.75;1.80;;;;;;;;;;5135199;27;20476;-61
2023/08/11 12:42:08;;;;;;;;;;;;;;;;;;5134963;27;20082;-61
2023/08/11 12:44:35;;;;;;;2.42;2.03;;;;;;;;;;5135074;27;19920;-61
2023/08/11 12:47:01;;;;;;;4.13;1.88;;;;;;;;;;5135064;27;20424;-61
2023/08/11 12:49:29;;;;;;;2.25;1.73;;;;;;;;;;5135215;27;20043;-61
2023/08/11 12:51:56;;;;;;;3.05;1.85;;;;;;;;;;5135058;27;20132;-61
2023/08/11 12:54:23;;;;;;;2.03;1.83;;;;;;;;;;5134993;27;20488;-61
2023/08/11 12:56:50;;;;;;;1.95;1.75;;;;;;;;;;5134553;27;20074;-61
2023/08/11 12:59:17;;;;;;;3.20;2.00;;;;;;;;;;5134672;27;20047;-61
2023/08/11 13:01:43;;;;;;;3.95;1.73;;;;;;;;;;5134479;27;20066;-61
2023/08/11 13:04:11;;;;;;;3.17;2.00;;;;;;;;;;5134668;27;20399;-61
2023/08/11 13:06:40;;;;;;;4.10;2.13;;;;;;;;;;5134492;27;20460;-61
2023/08/11 13:09:08;;;;;;;3.25;1.90;;;;;;;;;;5133919;27;20058;-61
2023/08/11 13:11:36;;;;;;;2.55;2.00;;;;;;;;;;5133885;27;20055;-61
2023/08/11 13:14:03;;;;;;;2.25;1.77;;;;;;;;;;5134407;27;20047;-61
2023/08/11 13:16:30;;;;;;;2.05;1.73;;;;;;;;;;5134571;27;20047;-61
2023/08/11 13:18:57;;;;;;;2.50;1.90;;;;;;;;;;5134580;27;20054;-61
2023/08/11 13:21:26;;;;;;;2.73;1.97;;;;;;;;;;5134004;27;20055;-61
2023/08/11 13:23:55;;;;;;;4.30;2.20;;;;;;;;;;5133402;27;20047;-61
2023/08/11 13:26:22;;;;;;;2.83;1.80;;;;;;;;;;5133894;27;20051;-60
2023/08/11 13:28:49;;;;;;;2.60;1.90;;;;;;;;;;5133854;27;20050;-60
2023/08/11 13:31:15;;;;;;;2.53;1.90;;;;;;;;;;5134342;27;20053;-60
2023/08/11 13:33:42;;;;;;;4.20;2.00;;;;;;;;;;5133836;27;20058;-60
2023/08/11 13:36:09;;;;;;;2.92;1.90;;;;;;;;;;5134110;27;20067;-60
2023/08/11 13:38:36;;;;;;;3.50;2.05;;;;;;;;;;5133270;27;20058;-62
2023/08/11 13:41:04;;;;;;;2.33;1.70;;;;;;;;;;5133912;27;20078;-60
2023/08/11 13:43:34;;;;;;;2.50;2.10;;;;;;;;;;5133768;27;20047;-60
2023/08/11 13:46:02;;;;;;;2.33;1.75;;;;;;;;;;5133929;27;20077;-61
2023/08/11 13:48:28;;;;;;;2.80;1.88;;;;;;;;;;5133901;27;20168;-62
2023/08/11 13:50:55;;;;;;;2.33;2.13;;;;;;;;;;5133508;27;20154;-60
2023/08/11 13:53:22;;;;;;;2.30;2.10;;;;;;;;;;5133528;27;20055;-62
2023/08/11 13:55:49;;;;;;;2.72;1.88;;;;;;;;;;5133452;27;20051;-60
2023/08/11 13:58:17;;;;;;;3.15;2.13;;;;;;;;;;5133206;27;20452;-60
2023/08/11 14:00:44;;;;;;;;;;;;;;;;;;5133663;27;20111;-61
2023/08/11 14:03:11;;;;;;;3.90;2.10;;;;;;;;;;5133360;27;19935;-60
2023/08/11 14:05:37;;;;;;;2.92;2.30;;;;;;;;;;5133082;27;20141;-60
2023/08/11 14:08:04;;;;;;;3.10;2.08;;;;;;;;;;5133505;27;20063;-60
2023/08/11 14:10:31;;;;;;;2.97;1.85;;;;;;;;;;5132815;27;20051;-60
2023/08/11 14:12:58;;;;;;;2.80;1.70;;;;;;;;;;5133408;27;20051;-61
2023/08/11 14:15:26;;;;;;;3.72;2.13;;;;;;;;;;5133236;27;20051;-60
2023/08/11 14:17:53;;;;;;;2.45;1.92;;;;;;;;;;5132869;27;20047;-61
2023/08/11 14:20:20;;;;;;;3.17;2.35;;;;;;;;;;5132780;27;20047;-61
2023/08/11 14:22:46;;;;;;;2.40;1.98;;;;;;;;;;5133208;27;20058;-60
2023/08/11 14:25:13;;;;;;;3.28;2.20;;;;;;;;;;5133353;27;20062;-61
2023/08/11 14:27:40;;;;;;;3.97;2.38;;;;;;;;;;5133357;27;20479;-60
2023/08/11 14:30:08;;;;;;;3.25;2.03;;;;;;;;;;5133324;28;20043;-61
2023/08/11 14:32:36;;;;;;;3.65;2.15;;;;;;;;;;5133185;28;20055;-61
2023/08/11 14:35:03;;;;;;;2.72;2.20;;;;;;;;;;5134577;27;20051;-61
2023/08/11 14:40:21;;;;;;;2.53;2.00;;;;;;;;;;5137335;27;20514;-61
2023/08/11 14:42:49;;;;;;;6.55;2.45;;;;;;;;;;5137160;27;20055;-61
2023/08/11 14:45:16;;;;;;;4.27;2.27;;;;;;;;;;5137131;27;20526;-61
2023/08/11 14:47:44;;;;;;;4.72;2.35;;;;;;;;;;5137042;27;20474;-61
2023/08/11 14:50:11;;;;;;;3.92;2.70;;;;;;;;;;5137719;27;20055;-60